Time;durP1;ratioP1;P1;durP2;ratioP2;P2;SDS_P1;SDS_P2;PMS_P1;PMS_P2;Temp;Humidity;BMP_temperature;BMP_pressure;BME280_temperature;BME280_humidity;BME280_pressure;Samples;Min_cycle;Max_cycle;Signal;HPM_P1;HPM_P2
2021/12/19 00:01:19;;;;;;;5.90;5.40;;;;;;;1.86;69.06;94945.43;828183;71;29687;-79
2021/12/19 00:16:08;;;;;;;6.47;5.70;;;;;;;1.74;69.09;94933.75;829198;71;29765;-80
2021/12/19 00:31:09;;;;;;;7.00;5.53;;;;;;;1.53;69.48;94926.78;828784;71;29632;-77
2021/12/19 00:46:11;;;;;;;6.50;5.85;;;;;;;1.33;70.32;94920.58;827872;71;30346;-77
2021/12/19 01:01:16;;;;;;;8.70;6.37;;;;;;;1.14;70.64;94909.49;827415;71;32694;-77
2021/12/19 01:16:16;;;;;;;8.38;6.80;;;;;;;0.95;71.21;94897.59;827481;71;32780;-78
2021/12/19 01:31:09;;;;;;;7.65;6.85;;;;;;;1.03;71.97;94886.18;834227;71;29784;-79
2021/12/19 01:46:08;;;;;;;7.85;7.00;;;;;;;1.11;72.02;94864.70;834139;71;29698;-77
2021/12/19 02:01:09;;;;;;;8.83;6.33;;;;;;;1.27;71.87;94865.88;833829;71;30376;-80
2021/12/19 02:16:11;;;;;;;7.80;6.67;;;;;;;1.36;71.41;94838.73;834079;71;29980;-79
2021/12/19 02:31:10;;;;;;;7.72;6.92;;;;;;;1.42;71.24;94833.66;828439;71;30353;-79
2021/12/19 03:01:17;;;;;;;9.88;7.62;;;;;;;1.43;72.02;94815.36;827898;71;33243;-78
2021/12/19 03:31:14;;;;;;;10.15;6.87;;;;;;;1.25;71.66;94803.80;834480;71;33177;-77
2021/12/19 03:46:11;;;;;;;9.23;7.12;;;;;;;1.04;71.33;94794.25;835132;71;31451;-80
2021/12/19 04:01:10;;;;;;;8.00;6.60;;;;;;;0.83;71.77;94782.59;835689;71;30065;-80
2021/12/19 04:16:09;;;;;;;6.50;5.47;;;;;;;0.67;71.20;94770.30;834377;71;30284;-80
2021/12/19 04:31:14;;;;;;;6.10;5.53;;;;;;;0.64;70.59;94756.55;827470;71;33404;-79
2021/12/19 05:16:19;;;;;;;8.13;6.50;;;;;;;1.12;69.82;94731.14;833567;71;33660;-79
2021/12/19 05:31:09;;;;;;;11.38;6.70;;;;;;;1.20;69.67;94739.35;826392;71;29268;-79
2021/12/19 05:46:08;;;;;;;7.60;6.00;;;;;;;1.56;68.87;94729.02;833744;71;28743;-78
2021/12/19 06:01:15;;;;;;;8.25;6.67;;;;;;;1.67;68.48;94719.20;819359;71;31820;-78
2021/12/19 06:16:09;;;;;;;10.38;6.42;;;;;;;1.71;68.28;94703.51;829739;71;29116;-79
2021/12/19 06:31:17;;;;;;;9.35;7.10;;;;;;;1.94;68.04;94679.91;824767;71;31752;-79
2021/12/19 06:46:13;;;;;;;9.20;7.50;;;;;;;2.06;67.10;94674.71;835129;71;30930;-80
2021/12/19 07:01:09;;;;;;;15.78;9.33;;;;;;;3.65;63.91;94645.66;817583;70;28687;-79
2021/12/19 07:16:10;;;;;;;12.10;8.83;;;;;;;5.55;59.74;94665.61;793866;74;29349;-78
2021/12/19 07:31:20;;;;;;;9.80;7.90;;;;;;;5.97;55.62;94640.86;823489;71;31790;-81
2021/12/19 07:46:15;;;;;;;8.60;7.60;;;;;;;5.62;55.34;94654.48;827325;71;31834;-78
2021/12/19 08:01:15;;;;;;;9.00;6.83;;;;;;;4.90;56.44;94646.17;818625;71;31758;-82
2021/12/19 08:16:10;;;;;;;9.78;7.42;;;;;;;4.59;57.21;94608.23;827662;71;29281;-79
2021/12/19 08:31:19;;;;;;;10.95;8.10;;;;;;;4.56;57.20;94576.26;827164;71;31734;-77
2021/12/19 08:46:11;;;;;;;11.80;8.45;;;;;;;4.59;57.11;94580.17;828009;71;30158;-79
2021/12/19 09:01:08;;;;;;;8.88;7.28;;;;;;;4.44;57.39;94587.33;827987;71;28650;-80
2021/12/19 09:16:10;;;;;;;10.70;7.40;;;;;;;4.31;58.07;94566.41;828737;71;29825;-79
2021/12/19 09:31:09;;;;;;;12.43;9.45;;;;;;;4.22;58.89;94553.63;825008;70;29258;-79
2021/12/19 09:46:28;;;;;;;14.07;9.28;;;;;;;4.16;59.92;94526.04;827163;71;32240;-82
2021/12/19 10:01:11;;;;;;;13.83;9.20;;;;;;;4.32;59.44;94484.88;827731;71;29290;-78
2021/12/19 10:16:29;;;;;;;12.73;9.25;;;;;;;4.46;59.82;94451.48;820748;71;28662;-78
2021/12/19 10:31:18;;;;;;;14.87;9.90;;;;;;;5.28;71.31;94432.38;835560;70;32746;-82
2021/12/19 10:46:33;;;;;;;11.73;9.23;;;;;;;6.31;61.51;94416.38;827839;71;29686;-78
2021/12/19 11:01:26;;;;;;;12.35;9.33;;;;;;;5.83;59.50;94398.37;827112;71;32721;-81
2021/12/19 11:16:09;;;;;;;15.83;11.38;;;;;;;5.22;59.45;94364.47;793483;74;29806;-82
2021/12/19 11:31:14;;;;;;;13.65;10.35;;;;;;;5.30;59.08;94348.89;833684;71;31520;-82
2021/12/19 11:46:22;;;;;;;15.63;10.40;;;;;;;5.36;58.65;94343.95;827525;71;30287;-79
2021/12/19 12:01:12;;;;;;;14.20;10.90;;;;;;;5.14;59.11;94314.27;821144;71;30568;-84
2021/12/19 12:16:31;;;;;;;14.60;11.10;;;;;;;4.80;59.97;94282.97;825923;71;32817;-83
2021/12/19 12:31:20;;;;;;;15.72;11.90;;;;;;;10.89;70.40;94262.14;833547;71;32742;-81
2021/12/19 12:46:18;;;;;;;14.18;10.35;;;;;;;6.99;58.07;94228.15;827890;71;29729;-83
2021/12/19 13:01:40;;;;;;;14.05;9.98;;;;;;;5.59;60.14;94217.22;823618;71;29801;-83
2021/12/19 13:16:09;;;;;;;12.35;9.25;;;;;;;4.89;62.38;94204.52;828324;71;30407;-81
2021/12/19 13:31:08;;;;;;;17.35;10.10;;;;;;;4.50;63.60;94192.77;828244;71;30231;-80
2021/12/19 13:46:16;;;;;;;14.45;10.25;;;;;;;4.23;64.73;94170.09;828377;71;32702;-81
2021/12/19 14:01:19;;;;;;;17.50;11.48;;;;;;;4.01;66.09;94142.48;828562;71;32674;-81
2021/12/19 14:16:12;;;;;;;15.90;11.88;;;;;;;3.87;66.59;94127.91;833837;71;30349;-79
2021/12/19 14:31:11;;;;;;;11.80;8.50;;;;;;;3.71;67.57;94101.14;821063;71;32016;-81
2021/12/19 14:46:08;;;;;;;11.10;7.62;;;;;;;3.57;68.59;94113.80;828469;71;29636;-82
2021/12/19 15:01:41;;;;;;;15.55;10.88;;;;;;;3.40;69.46;94104.11;822341;71;32759;-80
2021/12/19 15:16:15;;;;;;;15.70;10.78;;;;;;;3.27;70.63;94102.75;830587;71;32788;-80
2021/12/19 15:31:52;;;;;;;;;;;;;;;;;;;;;
2021/12/19 16:01:18;;;;;;;13.43;9.00;;;;;;;3.18;72.53;94035.06;820309;71;33240;-80
2021/12/19 17:01:15;;;;;;;8.85;6.70;;;;;;;3.54;72.98;94000.69;818435;71;33284;-78
2021/12/19 18:16:14;;;;;;;7.30;5.67;;;;;;;3.73;65.74;93931.73;827587;71;29741;-81
2021/12/19 18:31:45;;;;;;;6.05;5.42;;;;;;;4.13;64.72;93908.63;823901;71;33328;-80
2021/12/19 19:16:57;;;;;;;5.20;4.70;;;;;;;4.52;60.82;93887.25;820398;71;32906;-79
2021/12/19 19:31:25;;;;;;;4.47;3.98;;;;;;;4.43;60.53;93871.97;827295;71;30957;-80
2021/12/19 20:01:17;;;;;;;4.35;3.83;;;;;;;4.36;61.16;93860.03;826950;71;32662;-80
2021/12/19 20:16:11;;;;;;;4.70;4.30;;;;;;;4.35;61.08;93840.29;827790;71;30322;-80
2021/12/19 20:31:28;;;;;;;5.72;4.37;;;;;;;4.28;60.94;93815.14;833942;71;32706;-81
2021/12/19 20:46:42;;;;;;;4.80;3.98;;;;;;;4.44;60.49;93824.16;829378;71;32917;-80
2021/12/19 21:31:26;;;;;;;4.83;4.20;;;;;;;4.31;61.43;93767.09;827644;71;31882;-78
2021/12/19 21:46:43;;;;;;;4.00;3.60;;;;;;;4.30;62.32;93749.94;833702;71;32855;-81
2021/12/19 22:01:17;;;;;;;4.15;3.70;;;;;;;4.10;61.65;93740.44;827483;71;32063;-78
2021/12/19 22:31:36;;;;;;;3.98;3.67;;;;;;;4.28;61.73;93753.32;833420;71;33237;-81
2021/12/19 22:47:08;;;;;;;4.85;4.35;;;;;;;4.45;61.79;93757.67;845341;69;32667;-79
2021/12/19 23:01:31;;;;;;;4.65;4.20;;;;;;;4.54;61.40;93752.19;833504;71;32744;-79
2021/12/19 23:31:46;;;;;;;;;;;;;;;;;;;;;
